Time;durP1;ratioP1;P1;durP2;ratioP2;P2;SDS_P1;SDS_P2;PMS_P1;PMS_P2;Temp;Humidity;BMP_temperature;BMP_pressure;BME280_temperature;BME280_humidity;BME280_pressure;Samples;Min_cycle;Max_cycle;Signal;HPM_P1;HPM_P2
2024/02/23 08:08:48;;;;;;;3.38;0.70;;;;;;;;;;10480029;28;20033;-85
2024/02/23 08:13:49;;;;;;;2.63;0.65;;;;;;;;;;10464044;28;20040;-83
2024/02/23 08:19:05;;;;;;;;;;;;;;;;;;10460920;28;20033;-83
2024/02/23 08:24:09;;;;;;;2.65;0.90;;;;;;;;;;10482782;28;19924;-82
2024/02/23 08:29:14;;;;;;;2.88;1.08;;;;;;;;;;10461228;28;20128;-84
2024/02/23 08:34:17;;;;;;;4.32;1.08;;;;;;;;;;10468106;28;20037;-82
2024/02/23 08:39:42;;;;;;;3.47;1.20;;;;;;;;;;10466500;28;20029;-83
2024/02/23 08:44:50;;;;;;;3.60;1.10;;;;;;;;;;10458147;28;20106;-81
2024/02/23 08:49:52;;;;;;;2.25;1.08;;;;;;;;;;10473996;28;20080;-80
2024/02/23 08:55:18;;;;;;;11.35;6.93;;;;;;;;;;10477260;28;20044;-83
2024/02/23 09:00:19;;;;;;;3.00;1.30;;;;;;;;;;10462711;28;20033;-83
2024/02/23 09:05:26;;;;;;;;;;;;;;;;;;10466383;28;20072;-82
2024/02/23 09:10:27;;;;;;;3.13;1.45;;;;;;;;;;10463346;28;19916;-84
2024/02/23 09:15:34;;;;;;;3.00;1.08;;;;;;;;;;10475371;28;20097;-84
2024/02/23 09:20:38;;;;;;;3.00;0.90;;;;;;;;;;10439827;28;20048;-84
2024/02/23 09:25:39;;;;;;;3.65;1.05;;;;;;;;;;10458989;28;20036;-83
2024/02/23 09:30:41;;;;;;;3.00;1.10;;;;;;;;;;10459456;28;20041;-84
2024/02/23 09:35:45;;;;;;;2.28;0.80;;;;;;;;;;10476751;28;20059;-84
2024/02/23 09:46:18;;;;;;;2.78;1.00;;;;;;;;;;10471079;28;20438;-85
2024/02/23 09:51:35;;;;;;;3.00;0.90;;;;;;;;;;10471509;28;20047;-85
2024/02/23 09:56:42;;;;;;;3.03;0.90;;;;;;;;;;10442413;28;20048;-84
2024/02/23 10:02:04;;;;;;;4.40;1.00;;;;;;;;;;10464525;28;20052;-84
2024/02/23 10:07:25;;;;;;;3.08;1.10;;;;;;;;;;10482220;28;20060;-83
2024/02/23 10:12:45;;;;;;;4.30;2.22;;;;;;;;;;10453463;28;20063;-84
2024/02/23 10:18:06;;;;;;;9.75;5.95;;;;;;;;;;10474609;28;20063;-84
2024/02/23 10:23:10;;;;;;;2.72;1.00;;;;;;;;;;10497475;28;20032;-84
2024/02/23 10:28:13;;;;;;;1.10;0.68;;;;;;;;;;10497302;28;20077;-85
2024/02/23 10:33:14;;;;;;;2.67;0.90;;;;;;;;;;10488259;28;20029;-84
2024/02/23 10:38:18;;;;;;;2.88;0.77;;;;;;;;;;10498023;28;20056;-85
2024/02/23 10:43:21;;;;;;;2.50;0.85;;;;;;;;;;10476129;28;20458;-85
2024/02/23 10:48:22;;;;;;;2.10;0.60;;;;;;;;;;10476781;28;20148;-83
2024/02/23 10:53:23;;;;;;;;;;;;;;;;;;10479849;28;20029;-84
2024/02/23 10:58:24;;;;;;;2.00;0.70;;;;;;;;;;10472791;28;19931;-84
2024/02/23 11:03:25;;;;;;;2.90;0.98;;;;;;;;;;10464268;28;20294;-85
2024/02/23 11:08:32;;;;;;;2.10;0.80;;;;;;;;;;10480005;28;20403;-84
2024/02/23 11:13:49;;;;;;;3.05;0.93;;;;;;;;;;10459043;28;20525;-84
2024/02/23 11:19:02;;;;;;;1.55;0.85;;;;;;;;;;10468582;28;20048;-84
2024/02/23 11:24:04;;;;;;;2.33;0.90;;;;;;;;;;10482257;28;20033;-85
2024/02/23 11:29:14;;;;;;;2.58;0.90;;;;;;;;;;10463410;28;20041;-82
2024/02/23 11:34:22;;;;;;;2.50;0.93;;;;;;;;;;10463845;28;20033;-83
2024/02/23 11:39:23;;;;;;;2.35;0.70;;;;;;;;;;10468306;28;20071;-82
2024/02/23 11:44:24;;;;;;;;;;;;;;;;;;10464692;28;20060;-86
2024/02/23 11:49:29;;;;;;;2.17;0.88;;;;;;;;;;10461086;28;19920;-86
2024/02/23 11:54:32;;;;;;;1.40;0.70;;;;;;;;;;10477370;28;20022;-83
2024/02/23 11:59:33;;;;;;;2.25;0.80;;;;;;;;;;10460751;28;20498;-85
2024/02/23 12:04:36;;;;;;;4.13;1.30;;;;;;;;;;10479191;28;20037;-82
2024/02/23 12:09:37;;;;;;;3.55;1.02;;;;;;;;;;10476934;28;20037;-83
2024/02/23 12:14:38;;;;;;;;;;;;;;;;;;10474386;28;20406;-84
2024/02/23 12:19:42;;;;;;;1.55;0.65;;;;;;;;;;10457882;28;19904;-85
2024/02/23 12:24:43;;;;;;;2.13;0.63;;;;;;;;;;10456044;28;20478;-85
2024/02/23 12:29:51;;;;;;;2.70;1.13;;;;;;;;;;10475261;28;20116;-85
2024/02/23 12:34:56;;;;;;;3.83;0.80;;;;;;;;;;10465826;28;20148;-85
2024/02/23 12:39:57;;;;;;;2.95;0.80;;;;;;;;;;10453457;28;20045;-84
2024/02/23 12:44:58;;;;;;;3.20;0.85;;;;;;;;;;10470111;28;20136;-84
2024/02/23 12:49:59;;;;;;;4.53;0.90;;;;;;;;;;10454955;28;20566;-82
2024/02/23 12:55:00;;;;;;;3.03;1.10;;;;;;;;;;10465271;28;20049;-83
2024/02/23 13:00:02;;;;;;;;;;;;;;;;;;10478477;28;20104;-82
2024/02/23 13:05:03;;;;;;;;;;;;;;;;;;10474775;28;19909;-82
2024/02/23 13:10:04;;;;;;;1.73;0.70;;;;;;;;;;10471172;28;19956;-82
2024/02/23 13:15:08;;;;;;;2.50;0.90;;;;;;;;;;10471609;28;20056;-84
2024/02/23 13:20:12;;;;;;;4.03;0.85;;;;;;;;;;10453805;28;20156;-84
2024/02/23 13:25:13;;;;;;;5.55;3.92;;;;;;;;;;10452742;28;20055;-84
2024/02/23 13:30:14;;;;;;;2.10;1.05;;;;;;;;;;10450587;28;20039;-83
2024/02/23 13:35:20;;;;;;;;;;;;;;;;;;10458512;28;20191;-82
2024/02/23 13:40:21;;;;;;;2.30;0.93;;;;;;;;;;10488447;28;19944;-82
2024/02/23 13:45:24;;;;;;;2.38;0.90;;;;;;;;;;10476815;28;20029;-83
2024/02/23 13:50:25;;;;;;;1.33;0.60;;;;;;;;;;10469845;28;20029;-82
2024/02/23 13:55:47;;;;;;;2.75;1.02;;;;;;;;;;10446022;23;20085;-84
2024/02/23 14:06:39;;;;;;;2.45;0.80;;;;;;;;;;10445874;28;20413;-85
2024/02/23 14:17:31;;;;;;;2.33;0.85;;;;;;;;;;10468313;28;20069;-85
2024/02/23 14:22:53;;;;;;;1.98;0.82;;;;;;;;;;10445923;28;20036;-85
2024/02/23 14:34:08;;;;;;;3.15;1.13;;;;;;;;;;10478129;28;20025;-84
2024/02/23 14:39:26;;;;;;;3.08;1.20;;;;;;;;;;10476159;28;20053;-85
2024/02/23 15:02:25;;;;;;;2.25;0.80;;;;;;;;;;10430826;28;20033;-84
2024/02/23 15:07:28;;;;;;;8.25;6.60;;;;;;;;;;10422934;28;20141;-85
2024/02/23 15:30:03;;;;;;;2.85;1.20;;;;;;;;;;10476558;28;20033;-85
2024/02/23 15:35:52;;;;;;;2.75;0.60;;;;;;;;;;10309246;28;20544;-84
2024/02/23 15:47:14;;;;;;;2.72;0.88;;;;;;;;;;10115542;29;20041;-85
2024/02/23 15:52:32;;;;;;;1.70;0.60;;;;;;;;;;10117117;29;20045;-85
2024/02/23 15:57:39;;;;;;;5.05;1.08;;;;;;;;;;10180604;29;20094;-86
2024/02/23 16:08:41;;;;;;;3.33;1.42;;;;;;;;;;10221840;29;20024;-84
2024/02/23 16:13:55;;;;;;;3.85;1.20;;;;;;;;;;10303177;28;20035;-84
2024/02/23 16:36:33;;;;;;;2.38;1.00;;;;;;;;;;10380829;28;20395;-85
2024/02/23 16:41:44;;;;;;;2.50;1.02;;;;;;;;;;10381591;28;20028;-85
2024/02/23 16:46:55;;;;;;;5.43;1.50;;;;;;;;;;10469414;28;20116;-85
2024/02/23 16:51:56;;;;;;;2.20;1.30;;;;;;;;;;10452538;28;20291;-85
2024/02/23 16:56:58;;;;;;;3.50;1.27;;;;;;;;;;10458544;28;20090;-85
2024/02/23 17:01:59;;;;;;;2.05;1.30;;;;;;;;;;10466795;28;20048;-86
2024/02/23 17:07:01;;;;;;;3.97;1.73;;;;;;;;;;10471103;28;20461;-84
2024/02/23 17:12:02;;;;;;;3.70;1.77;;;;;;;;;;10458319;28;20025;-84
2024/02/23 17:17:03;;;;;;;2.53;1.80;;;;;;;;;;10459241;28;20029;-84
2024/02/23 17:22:04;;;;;;;3.53;1.73;;;;;;;;;;10454621;28;20044;-83
2024/02/23 17:27:06;;;;;;;2.28;1.45;;;;;;;;;;10463634;28;20036;-84
2024/02/23 17:32:07;;;;;;;2.75;1.60;;;;;;;;;;10477301;28;20029;-84
2024/02/23 17:37:09;;;;;;;3.78;1.55;;;;;;;;;;10482160;28;20033;-83
2024/02/23 17:42:11;;;;;;;4.45;1.63;;;;;;;;;;10451299;28;20043;-83
2024/02/23 17:47:12;;;;;;;2.97;1.50;;;;;;;;;;10448498;28;20053;-83
2024/02/23 17:52:14;;;;;;;2.67;1.05;;;;;;;;;;10449048;28;20044;-84
2024/02/23 17:57:15;;;;;;;2.03;1.20;;;;;;;;;;10448724;28;20085;-83
2024/02/23 18:02:16;;;;;;;4.07;1.50;;;;;;;;;;10453172;28;20037;-84
2024/02/23 18:07:17;;;;;;;;;;;;;;;;;;10449388;28;20120;-83
2024/02/23 18:12:18;;;;;;;2.83;1.85;;;;;;;;;;10450079;28;19908;-83
2024/02/23 18:17:19;;;;;;;3.88;2.13;;;;;;;;;;10467723;28;20502;-83
2024/02/23 18:22:39;;;;;;;;;;;;;;;;;;10449026;28;20128;-83
2024/02/23 18:27:40;;;;;;;2.85;1.90;;;;;;;;;;10449790;28;19912;-84
2024/02/23 18:32:47;;;;;;;4.57;2.30;;;;;;;;;;10463320;28;20037;-85
2024/02/23 18:38:05;;;;;;;3.70;2.22;;;;;;;;;;10444030;28;20032;-83
2024/02/23 18:43:06;;;;;;;2.60;1.60;;;;;;;;;;10450536;28;20127;-84
2024/02/23 18:48:07;;;;;;;;;;;;;;;;;;10448764;28;20117;-83
2024/02/23 18:53:08;;;;;;;4.78;2.78;;;;;;;;;;10450390;28;19908;-84
2024/02/23 18:58:09;;;;;;;2.90;2.03;;;;;;;;;;10457271;28;20037;-85
2024/02/23 19:03:10;;;;;;;;;;;;;;;;;;10450851;28;20033;-84
2024/02/23 19:08:11;;;;;;;2.83;1.50;;;;;;;;;;10448022;28;19905;-84
2024/02/23 19:13:12;;;;;;;;;;;;;;;;;;10448508;28;20049;-84
2024/02/23 19:18:13;;;;;;;2.15;1.38;;;;;;;;;;10447247;28;19904;-84
2024/02/23 19:23:16;;;;;;;4.28;2.13;;;;;;;;;;10446314;28;20033;-85
2024/02/23 19:28:17;;;;;;;2.53;1.50;;;;;;;;;;10446393;28;20032;-84
2024/02/23 19:33:18;;;;;;;4.85;3.05;;;;;;;;;;10447790;28;20032;-84
2024/02/23 19:38:19;;;;;;;;;;;;;;;;;;10457202;28;20087;-85
2024/02/23 19:43:20;;;;;;;3.15;2.00;;;;;;;;;;10450193;28;19905;-83
2024/02/23 19:48:21;;;;;;;;;;;;;;;;;;10454088;28;20068;-84
2024/02/23 19:53:22;;;;;;;3.58;2.20;;;;;;;;;;10454146;28;19913;-86
2024/02/23 19:58:23;;;;;;;;;;;;;;;;;;10470433;28;20031;-86
2024/02/23 20:03:24;;;;;;;3.45;1.75;;;;;;;;;;10483666;28;19968;-85
